logo
Rechercher aéroport 
image banner adimage banner adimage banner ad
image banner ad

YAOD - Aust Age Of Dinosaurs Museum

Situé à , Australia

ICAO - , IATA -

Données fournies par Airmate  

Information générale

Coordonnées: S22°28'48" E143°10'57"
Élévation : 898 feet MSL.
 
Voir autres Aéroports à Queensland

Données opérationnelles

Special qualification required
Heure actuelle UTC:
Heure actuelle locale:
Météo à : - ( 0 km )
METAR: KASG 231548Z 30007KT 10SM CLR 11/04 A3004
Voir NOTAMs / SUP AIP / TFR affectant cet aéroport [VIEW]
Fréquences de communication: [VIEW]

Pistes:

Coordonnées de l'aéroport

Adresse: Australia

Vue satellite de YAOD